sensor_id;sensor_type;location;lat;lon;timestamp;P1;durP1;ratioP1;P2;durP2;ratioP2
70549;SDS011;58101;48.658;2.328;2024-02-21T00:00:43;16.67;;;5.47;;
70549;SDS011;58101;48.658;2.328;2024-02-21T00:03:09;28.30;;;6.55;;
70549;SDS011;58101;48.658;2.328;2024-02-21T00:05:35;18.08;;;5.47;;
70549;SDS011;58101;48.658;2.328;2024-02-21T00:08:00;17.25;;;5.53;;
70549;SDS011;58101;48.658;2.328;2024-02-21T00:10:28;20.15;;;5.93;;
70549;SDS011;58101;48.658;2.328;2024-02-21T00:12:53;23.75;;;5.80;;
70549;SDS011;58101;48.658;2.328;2024-02-21T00:15:19;16.75;;;5.68;;
70549;SDS011;58101;48.658;2.328;2024-02-21T00:17:46;16.48;;;5.47;;
70549;SDS011;58101;48.658;2.328;2024-02-21T00:20:12;20.65;;;4.95;;
70549;SDS011;58101;48.658;2.328;2024-02-21T00:22:37;20.00;;;5.65;;
70549;SDS011;58101;48.658;2.328;2024-02-21T00:25:03;20.13;;;5.57;;
70549;SDS011;58101;48.658;2.328;2024-02-21T00:27:29;20.85;;;5.47;;
70549;SDS011;58101;48.658;2.328;2024-02-21T00:29:54;17.00;;;5.20;;
70549;SDS011;58101;48.658;2.328;2024-02-21T00:32:20;19.33;;;5.57;;
70549;SDS011;58101;48.658;2.328;2024-02-21T00:34:46;16.30;;;5.35;;
70549;SDS011;58101;48.658;2.328;2024-02-21T00:37:11;16.15;;;4.93;;
70549;SDS011;58101;48.658;2.328;2024-02-21T00:39:37;15.45;;;4.97;;
70549;SDS011;58101;48.658;2.328;2024-02-21T00:42:03;15.57;;;5.13;;
70549;SDS011;58101;48.658;2.328;2024-02-21T00:44:28;19.38;;;5.00;;
70549;SDS011;58101;48.658;2.328;2024-02-21T00:46:54;17.08;;;5.32;;
70549;SDS011;58101;48.658;2.328;2024-02-21T00:49:20;16.77;;;5.43;;
70549;SDS011;58101;48.658;2.328;2024-02-21T00:51:46;19.25;;;5.60;;
70549;SDS011;58101;48.658;2.328;2024-02-21T00:54:12;20.67;;;5.60;;
70549;SDS011;58101;48.658;2.328;2024-02-21T00:56:38;16.42;;;5.10;;
70549;SDS011;58101;48.658;2.328;2024-02-21T00:59:03;14.52;;;5.25;;
70549;SDS011;58101;48.658;2.328;2024-02-21T01:01:29;21.35;;;5.47;;
70549;SDS011;58101;48.658;2.328;2024-02-21T01:03:55;17.60;;;5.82;;
70549;SDS011;58101;48.658;2.328;2024-02-21T01:06:20;15.27;;;5.40;;
70549;SDS011;58101;48.658;2.328;2024-02-21T01:08:49;20.17;;;5.50;;
70549;SDS011;58101;48.658;2.328;2024-02-21T01:11:15;14.05;;;5.32;;
70549;SDS011;58101;48.658;2.328;2024-02-21T01:13:41;19.27;;;5.43;;
70549;SDS011;58101;48.658;2.328;2024-02-21T01:16:07;15.98;;;5.10;;
70549;SDS011;58101;48.658;2.328;2024-02-21T01:18:33;19.23;;;5.28;;
70549;SDS011;58101;48.658;2.328;2024-02-21T01:20:59;18.70;;;5.50;;
70549;SDS011;58101;48.658;2.328;2024-02-21T01:23:25;15.30;;;4.88;;
70549;SDS011;58101;48.658;2.328;2024-02-21T01:25:51;13.65;;;5.15;;
70549;SDS011;58101;48.658;2.328;2024-02-21T01:28:16;19.88;;;5.72;;
70549;SDS011;58101;48.658;2.328;2024-02-21T01:30:43;16.95;;;5.07;;
70549;SDS011;58101;48.658;2.328;2024-02-21T01:33:08;15.82;;;5.07;;
70549;SDS011;58101;48.658;2.328;2024-02-21T01:35:34;20.67;;;5.57;;
70549;SDS011;58101;48.658;2.328;2024-02-21T01:38:01;15.80;;;5.15;;
70549;SDS011;58101;48.658;2.328;2024-02-21T01:40:26;16.75;;;5.40;;
70549;SDS011;58101;48.658;2.328;2024-02-21T01:42:53;17.17;;;6.03;;
70549;SDS011;58101;48.658;2.328;2024-02-21T01:45:20;15.98;;;5.60;;
70549;SDS011;58101;48.658;2.328;2024-02-21T01:47:46;20.67;;;5.95;;
70549;SDS011;58101;48.658;2.328;2024-02-21T01:50:12;17.88;;;5.88;;
70549;SDS011;58101;48.658;2.328;2024-02-21T01:52:40;19.83;;;6.30;;
70549;SDS011;58101;48.658;2.328;2024-02-21T01:55:07;15.80;;;5.50;;
70549;SDS011;58101;48.658;2.328;2024-02-21T01:57:34;15.18;;;5.28;;
70549;SDS011;58101;48.658;2.328;2024-02-21T02:00:00;20.33;;;6.13;;
70549;SDS011;58101;48.658;2.328;2024-02-21T02:02:26;20.90;;;5.35;;
70549;SDS011;58101;48.658;2.328;2024-02-21T02:04:52;16.30;;;5.35;;
70549;SDS011;58101;48.658;2.328;2024-02-21T02:07:18;17.48;;;5.38;;
70549;SDS011;58101;48.658;2.328;2024-02-21T02:09:43;19.27;;;5.40;;
70549;SDS011;58101;48.658;2.328;2024-02-21T02:12:09;14.30;;;4.97;;
70549;SDS011;58101;48.658;2.328;2024-02-21T02:14:35;17.08;;;5.50;;
70549;SDS011;58101;48.658;2.328;2024-02-21T02:17:00;16.02;;;5.22;;
70549;SDS011;58101;48.658;2.328;2024-02-21T02:19:26;17.02;;;5.78;;
70549;SDS011;58101;48.658;2.328;2024-02-21T02:21:53;14.40;;;5.32;;
70549;SDS011;58101;48.658;2.328;2024-02-21T02:24:28;17.63;;;5.72;;
70549;SDS011;58101;48.658;2.328;2024-02-21T02:26:54;17.90;;;5.68;;
70549;SDS011;58101;48.658;2.328;2024-02-21T02:29:19;18.08;;;5.25;;
70549;SDS011;58101;48.658;2.328;2024-02-21T02:31:45;23.77;;;5.65;;
70549;SDS011;58101;48.658;2.328;2024-02-21T02:34:11;19.38;;;6.35;;
70549;SDS011;58101;48.658;2.328;2024-02-21T02:36:36;15.90;;;5.28;;
70549;SDS011;58101;48.658;2.328;2024-02-21T02:39:02;16.77;;;5.30;;
70549;SDS011;58101;48.658;2.328;2024-02-21T02:41:27;15.05;;;5.28;;
70549;SDS011;58101;48.658;2.328;2024-02-21T02:43:53;19.00;;;5.30;;
70549;SDS011;58101;48.658;2.328;2024-02-21T02:46:19;16.92;;;5.28;;
70549;SDS011;58101;48.658;2.328;2024-02-21T02:48:44;16.00;;;4.57;;
70549;SDS011;58101;48.658;2.328;2024-02-21T02:51:10;15.45;;;5.18;;
70549;SDS011;58101;48.658;2.328;2024-02-21T02:53:36;15.13;;;5.30;;
70549;SDS011;58101;48.658;2.328;2024-02-21T02:56:02;19.05;;;5.28;;
70549;SDS011;58101;48.658;2.328;2024-02-21T02:58:28;15.65;;;4.72;;
70549;SDS011;58101;48.658;2.328;2024-02-21T03:00:53;15.05;;;5.03;;
70549;SDS011;58101;48.658;2.328;2024-02-21T03:03:19;11.45;;;4.43;;
70549;SDS011;58101;48.658;2.328;2024-02-21T03:05:45;16.45;;;4.70;;
70549;SDS011;58101;48.658;2.328;2024-02-21T03:08:11;18.92;;;4.95;;
70549;SDS011;58101;48.658;2.328;2024-02-21T03:10:36;15.82;;;4.80;;
70549;SDS011;58101;48.658;2.328;2024-02-21T03:13:02;21.95;;;5.43;;
70549;SDS011;58101;48.658;2.328;2024-02-21T03:15:28;15.90;;;5.10;;
70549;SDS011;58101;48.658;2.328;2024-02-21T03:17:54;16.02;;;4.80;;
70549;SDS011;58101;48.658;2.328;2024-02-21T03:20:20;13.65;;;4.53;;
70549;SDS011;58101;48.658;2.328;2024-02-21T03:22:45;19.02;;;4.72;;
70549;SDS011;58101;48.658;2.328;2024-02-21T03:25:11;15.68;;;5.00;;
70549;SDS011;58101;48.658;2.328;2024-02-21T03:27:39;19.75;;;5.82;;
70549;SDS011;58101;48.658;2.328;2024-02-21T03:30:04;18.83;;;5.40;;
70549;SDS011;58101;48.658;2.328;2024-02-21T03:32:30;15.73;;;5.03;;
70549;SDS011;58101;48.658;2.328;2024-02-21T03:34:56;18.50;;;4.70;;
70549;SDS011;58101;48.658;2.328;2024-02-21T03:37:21;16.67;;;5.20;;
70549;SDS011;58101;48.658;2.328;2024-02-21T03:39:47;14.48;;;5.13;;
70549;SDS011;58101;48.658;2.328;2024-02-21T03:42:13;16.73;;;4.97;;
70549;SDS011;58101;48.658;2.328;2024-02-21T03:44:39;15.77;;;4.65;;
70549;SDS011;58101;48.658;2.328;2024-02-21T03:47:04;15.02;;;4.88;;
70549;SDS011;58101;48.658;2.328;2024-02-21T03:49:30;17.27;;;5.47;;
70549;SDS011;58101;48.658;2.328;2024-02-21T03:51:56;13.57;;;4.80;;
70549;SDS011;58101;48.658;2.328;2024-02-21T03:54:21;18.65;;;5.07;;
70549;SDS011;58101;48.658;2.328;2024-02-21T03:56:47;16.30;;;5.15;;
70549;SDS011;58101;48.658;2.328;2024-02-21T03:59:13;14.55;;;5.22;;
70549;SDS011;58101;48.658;2.328;2024-02-21T04:01:39;17.83;;;5.00;;
70549;SDS011;58101;48.658;2.328;2024-02-21T04:04:05;14.75;;;4.60;;
70549;SDS011;58101;48.658;2.328;2024-02-21T04:06:31;17.02;;;5.18;;
70549;SDS011;58101;48.658;2.328;2024-02-21T04:08:57;17.27;;;4.97;;
70549;SDS011;58101;48.658;2.328;2024-02-21T04:11:23;16.98;;;5.13;;
70549;SDS011;58101;48.658;2.328;2024-02-21T04:13:49;17.50;;;4.93;;
70549;SDS011;58101;48.658;2.328;2024-02-21T04:16:16;16.17;;;5.30;;
70549;SDS011;58101;48.658;2.328;2024-02-21T04:18:42;15.18;;;5.57;;
70549;SDS011;58101;48.658;2.328;2024-02-21T04:21:09;19.38;;;5.07;;
70549;SDS011;58101;48.658;2.328;2024-02-21T04:23:34;21.35;;;4.90;;
70549;SDS011;58101;48.658;2.328;2024-02-21T04:26:00;17.92;;;5.38;;
70549;SDS011;58101;48.658;2.328;2024-02-21T04:28:26;19.55;;;5.65;;
70549;SDS011;58101;48.658;2.328;2024-02-21T04:30:52;16.55;;;4.78;;
70549;SDS011;58101;48.658;2.328;2024-02-21T04:33:17;16.15;;;5.18;;
70549;SDS011;58101;48.658;2.328;2024-02-21T04:35:43;13.60;;;4.50;;
70549;SDS011;58101;48.658;2.328;2024-02-21T04:38:09;13.77;;;4.63;;
70549;SDS011;58101;48.658;2.328;2024-02-21T04:40:34;16.52;;;4.78;;
70549;SDS011;58101;48.658;2.328;2024-02-21T04:43:00;12.57;;;4.45;;
70549;SDS011;58101;48.658;2.328;2024-02-21T04:45:25;14.55;;;4.57;;
70549;SDS011;58101;48.658;2.328;2024-02-21T04:47:51;15.18;;;4.40;;
70549;SDS011;58101;48.658;2.328;2024-02-21T04:50:17;14.52;;;4.50;;
70549;SDS011;58101;48.658;2.328;2024-02-21T04:52:43;19.50;;;4.78;;
70549;SDS011;58101;48.658;2.328;2024-02-21T04:55:08;16.10;;;4.45;;
70549;SDS011;58101;48.658;2.328;2024-02-21T04:57:34;14.10;;;4.45;;
70549;SDS011;58101;48.658;2.328;2024-02-21T04:59:59;14.18;;;4.45;;
70549;SDS011;58101;48.658;2.328;2024-02-21T05:02:25;15.60;;;4.38;;
70549;SDS011;58101;48.658;2.328;2024-02-21T05:04:52;16.55;;;4.95;;
70549;SDS011;58101;48.658;2.328;2024-02-21T05:07:18;13.90;;;4.72;;
70549;SDS011;58101;48.658;2.328;2024-02-21T05:09:44;14.65;;;4.72;;
70549;SDS011;58101;48.658;2.328;2024-02-21T05:12:10;14.45;;;4.78;;
70549;SDS011;58101;48.658;2.328;2024-02-21T05:14:36;19.52;;;4.90;;
70549;SDS011;58101;48.658;2.328;2024-02-21T05:17:02;17.23;;;4.95;;
70549;SDS011;58101;48.658;2.328;2024-02-21T05:19:31;15.70;;;5.00;;
70549;SDS011;58101;48.658;2.328;2024-02-21T05:21:56;13.27;;;4.28;;
70549;SDS011;58101;48.658;2.328;2024-02-21T05:24:23;17.95;;;5.28;;
70549;SDS011;58101;48.658;2.328;2024-02-21T05:26:49;15.02;;;4.55;;
70549;SDS011;58101;48.658;2.328;2024-02-21T05:29:14;14.05;;;4.32;;
70549;SDS011;58101;48.658;2.328;2024-02-21T05:32:13;17.45;;;4.82;;
70549;SDS011;58101;48.658;2.328;2024-02-21T05:34:32;15.90;;;4.80;;
70549;SDS011;58101;48.658;2.328;2024-02-21T05:36:57;15.07;;;4.47;;
70549;SDS011;58101;48.658;2.328;2024-02-21T05:39:24;11.32;;;4.38;;
70549;SDS011;58101;48.658;2.328;2024-02-21T05:41:50;14.13;;;4.63;;
70549;SDS011;58101;48.658;2.328;2024-02-21T05:44:16;18.65;;;4.68;;
70549;SDS011;58101;48.658;2.328;2024-02-21T05:46:42;14.65;;;4.50;;
70549;SDS011;58101;48.658;2.328;2024-02-21T05:49:07;16.38;;;4.60;;
70549;SDS011;58101;48.658;2.328;2024-02-21T05:51:33;15.02;;;4.30;;
70549;SDS011;58101;48.658;2.328;2024-02-21T05:54:00;19.63;;;4.80;;
70549;SDS011;58101;48.658;2.328;2024-02-21T05:56:26;14.48;;;4.70;;
70549;SDS011;58101;48.658;2.328;2024-02-21T05:58:52;13.85;;;4.68;;
70549;SDS011;58101;48.658;2.328;2024-02-21T06:01:17;14.05;;;4.40;;
70549;SDS011;58101;48.658;2.328;2024-02-21T06:03:43;13.65;;;4.45;;
70549;SDS011;58101;48.658;2.328;2024-02-21T06:06:09;24.58;;;4.40;;
70549;SDS011;58101;48.658;2.328;2024-02-21T06:08:34;13.48;;;4.10;;
70549;SDS011;58101;48.658;2.328;2024-02-21T06:11:00;12.63;;;4.13;;
70549;SDS011;58101;48.658;2.328;2024-02-21T06:13:26;13.85;;;3.80;;
70549;SDS011;58101;48.658;2.328;2024-02-21T06:15:52;13.23;;;3.90;;
70549;SDS011;58101;48.658;2.328;2024-02-21T06:18:18;14.20;;;4.00;;
70549;SDS011;58101;48.658;2.328;2024-02-21T06:20:45;13.65;;;4.28;;
70549;SDS011;58101;48.658;2.328;2024-02-21T06:23:14;12.70;;;3.92;;
70549;SDS011;58101;48.658;2.328;2024-02-21T06:25:44;15.13;;;4.38;;
70549;SDS011;58101;48.658;2.328;2024-02-21T06:28:10;14.80;;;4.38;;
70549;SDS011;58101;48.658;2.328;2024-02-21T06:30:35;14.65;;;3.92;;
70549;SDS011;58101;48.658;2.328;2024-02-21T06:33:01;11.00;;;3.63;;
70549;SDS011;58101;48.658;2.328;2024-02-21T06:35:27;13.10;;;3.90;;
70549;SDS011;58101;48.658;2.328;2024-02-21T06:37:53;13.13;;;3.72;;
70549;SDS011;58101;48.658;2.328;2024-02-21T06:40:22;12.63;;;3.65;;
70549;SDS011;58101;48.658;2.328;2024-02-21T06:42:48;15.85;;;3.95;;
70549;SDS011;58101;48.658;2.328;2024-02-21T06:45:15;12.82;;;3.70;;
70549;SDS011;58101;48.658;2.328;2024-02-21T06:47:41;13.30;;;3.63;;
70549;SDS011;58101;48.658;2.328;2024-02-21T06:50:07;11.40;;;3.38;;
70549;SDS011;58101;48.658;2.328;2024-02-21T06:52:33;12.13;;;3.40;;
70549;SDS011;58101;48.658;2.328;2024-02-21T06:54:59;14.50;;;4.10;;
70549;SDS011;58101;48.658;2.328;2024-02-21T06:57:25;13.57;;;3.47;;
70549;SDS011;58101;48.658;2.328;2024-02-21T06:59:51;16.27;;;4.25;;
70549;SDS011;58101;48.658;2.328;2024-02-21T07:02:16;10.85;;;3.85;;
70549;SDS011;58101;48.658;2.328;2024-02-21T07:04:42;12.93;;;3.80;;
70549;SDS011;58101;48.658;2.328;2024-02-21T07:07:08;11.98;;;3.80;;
70549;SDS011;58101;48.658;2.328;2024-02-21T07:09:34;13.55;;;4.15;;
70549;SDS011;58101;48.658;2.328;2024-02-21T07:12:00;14.18;;;3.85;;
70549;SDS011;58101;48.658;2.328;2024-02-21T07:14:28;15.20;;;4.13;;
70549;SDS011;58101;48.658;2.328;2024-02-21T07:16:53;15.45;;;4.15;;
70549;SDS011;58101;48.658;2.328;2024-02-21T07:19:19;12.02;;;3.45;;
70549;SDS011;58101;48.658;2.328;2024-02-21T07:21:45;13.25;;;4.22;;
70549;SDS011;58101;48.658;2.328;2024-02-21T07:24:10;13.35;;;3.92;;
70549;SDS011;58101;48.658;2.328;2024-02-21T07:26:37;13.13;;;3.53;;
70549;SDS011;58101;48.658;2.328;2024-02-21T07:29:05;11.57;;;3.35;;
70549;SDS011;58101;48.658;2.328;2024-02-21T07:31:31;10.50;;;3.65;;
70549;SDS011;58101;48.658;2.328;2024-02-21T07:34:03;14.02;;;3.50;;
70549;SDS011;58101;48.658;2.328;2024-02-21T07:36:29;12.18;;;3.85;;
70549;SDS011;58101;48.658;2.328;2024-02-21T07:38:55;11.32;;;4.13;;
70549;SDS011;58101;48.658;2.328;2024-02-21T07:41:21;17.65;;;4.20;;
70549;SDS011;58101;48.658;2.328;2024-02-21T07:43:47;12.85;;;3.67;;
70549;SDS011;58101;48.658;2.328;2024-02-21T07:46:13;12.82;;;4.57;;
70549;SDS011;58101;48.658;2.328;2024-02-21T07:48:39;13.05;;;4.18;;
70549;SDS011;58101;48.658;2.328;2024-02-21T07:51:05;11.68;;;4.07;;
70549;SDS011;58101;48.658;2.328;2024-02-21T07:53:31;12.40;;;3.85;;
70549;SDS011;58101;48.658;2.328;2024-02-21T07:55:56;10.85;;;3.78;;
70549;SDS011;58101;48.658;2.328;2024-02-21T07:58:22;11.48;;;3.95;;
70549;SDS011;58101;48.658;2.328;2024-02-21T08:00:48;14.65;;;3.97;;
70549;SDS011;58101;48.658;2.328;2024-02-21T08:03:13;13.60;;;3.85;;
70549;SDS011;58101;48.658;2.328;2024-02-21T08:05:40;12.43;;;3.70;;
70549;SDS011;58101;48.658;2.328;2024-02-21T08:08:06;10.77;;;3.70;;
70549;SDS011;58101;48.658;2.328;2024-02-21T08:10:33;11.38;;;3.75;;
70549;SDS011;58101;48.658;2.328;2024-02-21T08:12:59;13.02;;;3.72;;
70549;SDS011;58101;48.658;2.328;2024-02-21T08:15:24;11.98;;;3.85;;
70549;SDS011;58101;48.658;2.328;2024-02-21T08:17:54;16.27;;;3.85;;
70549;SDS011;58101;48.658;2.328;2024-02-21T08:20:24;11.63;;;3.40;;
70549;SDS011;58101;48.658;2.328;2024-02-21T08:22:49;13.15;;;3.78;;
70549;SDS011;58101;48.658;2.328;2024-02-21T08:25:15;9.85;;;3.60;;
70549;SDS011;58101;48.658;2.328;2024-02-21T08:27:40;8.93;;;3.28;;
70549;SDS011;58101;48.658;2.328;2024-02-21T08:30:06;14.25;;;3.78;;
70549;SDS011;58101;48.658;2.328;2024-02-21T08:32:33;13.05;;;3.70;;
70549;SDS011;58101;48.658;2.328;2024-02-21T08:35:01;14.23;;;3.97;;
70549;SDS011;58101;48.658;2.328;2024-02-21T08:37:27;13.10;;;4.07;;
70549;SDS011;58101;48.658;2.328;2024-02-21T08:39:53;13.10;;;4.63;;
70549;SDS011;58101;48.658;2.328;2024-02-21T08:42:18;14.38;;;4.47;;
70549;SDS011;58101;48.658;2.328;2024-02-21T08:44:44;13.90;;;3.92;;
70549;SDS011;58101;48.658;2.328;2024-02-21T08:47:10;13.73;;;4.10;;
70549;SDS011;58101;48.658;2.328;2024-02-21T08:49:36;11.38;;;3.42;;
70549;SDS011;58101;48.658;2.328;2024-02-21T08:52:02;10.55;;;3.10;;
70549;SDS011;58101;48.658;2.328;2024-02-21T08:54:28;13.80;;;3.55;;
70549;SDS011;58101;48.658;2.328;2024-02-21T08:56:54;12.30;;;3.60;;
70549;SDS011;58101;48.658;2.328;2024-02-21T08:59:21;9.20;;;3.28;;
70549;SDS011;58101;48.658;2.328;2024-02-21T09:01:47;13.13;;;3.88;;
70549;SDS011;58101;48.658;2.328;2024-02-21T09:04:13;8.73;;;2.95;;
70549;SDS011;58101;48.658;2.328;2024-02-21T09:06:38;11.77;;;3.40;;
70549;SDS011;58101;48.658;2.328;2024-02-21T09:09:07;13.10;;;3.45;;
70549;SDS011;58101;48.658;2.328;2024-02-21T09:11:34;10.18;;;3.30;;
70549;SDS011;58101;48.658;2.328;2024-02-21T09:13:59;11.32;;;3.00;;
70549;SDS011;58101;48.658;2.328;2024-02-21T09:16:25;12.82;;;3.30;;
70549;SDS011;58101;48.658;2.328;2024-02-21T09:18:51;9.80;;;3.20;;
70549;SDS011;58101;48.658;2.328;2024-02-21T09:21:17;9.82;;;3.03;;
70549;SDS011;58101;48.658;2.328;2024-02-21T09:23:43;12.32;;;3.30;;
70549;SDS011;58101;48.658;2.328;2024-02-21T09:26:10;10.32;;;3.40;;
70549;SDS011;58101;48.658;2.328;2024-02-21T09:28:38;15.32;;;3.47;;
70549;SDS011;58101;48.658;2.328;2024-02-21T09:31:04;12.27;;;3.50;;
70549;SDS011;58101;48.658;2.328;2024-02-21T09:33:30;14.52;;;3.60;;
70549;SDS011;58101;48.658;2.328;2024-02-21T09:35:55;18.67;;;3.47;;
70549;SDS011;58101;48.658;2.328;2024-02-21T09:38:21;10.05;;;2.97;;
70549;SDS011;58101;48.658;2.328;2024-02-21T09:40:47;9.30;;;3.10;;
70549;SDS011;58101;48.658;2.328;2024-02-21T09:43:12;15.23;;;3.90;;
70549;SDS011;58101;48.658;2.328;2024-02-21T09:45:43;15.45;;;3.67;;
70549;SDS011;58101;48.658;2.328;2024-02-21T09:51:05;10.40;;;3.55;;
70549;SDS011;58101;48.658;2.328;2024-02-21T09:53:32;9.80;;;3.35;;
70549;SDS011;58101;48.658;2.328;2024-02-21T09:55:59;13.07;;;3.50;;
70549;SDS011;58101;48.658;2.328;2024-02-21T09:58:26;11.18;;;3.53;;
70549;SDS011;58101;48.658;2.328;2024-02-21T10:00:52;11.82;;;3.30;;
70549;SDS011;58101;48.658;2.328;2024-02-21T10:03:18;10.68;;;3.22;;
70549;SDS011;58101;48.658;2.328;2024-02-21T10:05:47;11.68;;;3.67;;
70549;SDS011;58101;48.658;2.328;2024-02-21T10:08:15;12.32;;;3.10;;
70549;SDS011;58101;48.658;2.328;2024-02-21T10:10:42;10.63;;;3.30;;
70549;SDS011;58101;48.658;2.328;2024-02-21T10:13:21;9.02;;;3.10;;
70549;SDS011;58101;48.658;2.328;2024-02-21T10:16:04;17.27;;;5.93;;
70549;SDS011;58101;48.658;2.328;2024-02-21T10:18:33;13.90;;;5.13;;
70549;SDS011;58101;48.658;2.328;2024-02-21T10:21:08;12.25;;;3.63;;
70549;SDS011;58101;48.658;2.328;2024-02-21T10:23:48;12.57;;;3.30;;
70549;SDS011;58101;48.658;2.328;2024-02-21T10:26:16;13.30;;;3.63;;
70549;SDS011;58101;48.658;2.328;2024-02-21T10:28:43;10.85;;;3.97;;
70549;SDS011;58101;48.658;2.328;2024-02-21T10:31:11;12.02;;;3.55;;
70549;SDS011;58101;48.658;2.328;2024-02-21T10:33:37;9.65;;;3.80;;
70549;SDS011;58101;48.658;2.328;2024-02-21T10:36:09;11.40;;;3.70;;
70549;SDS011;58101;48.658;2.328;2024-02-21T10:38:36;13.07;;;4.40;;
70549;SDS011;58101;48.658;2.328;2024-02-21T10:41:04;17.25;;;3.83;;
70549;SDS011;58101;48.658;2.328;2024-02-21T10:43:31;13.15;;;4.75;;
70549;SDS011;58101;48.658;2.328;2024-02-21T10:46:09;12.57;;;4.18;;
70549;SDS011;58101;48.658;2.328;2024-02-21T10:48:42;10.65;;;3.70;;
70549;SDS011;58101;48.658;2.328;2024-02-21T10:51:19;10.52;;;3.38;;
70549;SDS011;58101;48.658;2.328;2024-02-21T10:53:54;9.88;;;3.63;;
70549;SDS011;58101;48.658;2.328;2024-02-21T10:56:33;17.25;;;3.65;;
70549;SDS011;58101;48.658;2.328;2024-02-21T10:59:02;14.18;;;4.15;;
70549;SDS011;58101;48.658;2.328;2024-02-21T11:01:29;13.32;;;4.57;;
70549;SDS011;58101;48.658;2.328;2024-02-21T11:04:03;13.52;;;4.13;;
70549;SDS011;58101;48.658;2.328;2024-02-21T11:06:30;12.43;;;4.70;;
70549;SDS011;58101;48.658;2.328;2024-02-21T11:09:05;14.10;;;5.10;;
70549;SDS011;58101;48.658;2.328;2024-02-21T11:11:42;13.02;;;3.83;;
70549;SDS011;58101;48.658;2.328;2024-02-21T11:14:10;11.52;;;3.85;;
70549;SDS011;58101;48.658;2.328;2024-02-21T11:16:42;11.68;;;3.33;;
70549;SDS011;58101;48.658;2.328;2024-02-21T11:19:09;10.90;;;3.20;;
70549;SDS011;58101;48.658;2.328;2024-02-21T11:21:44;9.18;;;3.25;;
70549;SDS011;58101;48.658;2.328;2024-02-21T11:24:09;8.90;;;2.90;;
70549;SDS011;58101;48.658;2.328;2024-02-21T11:26:36;8.52;;;2.85;;
70549;SDS011;58101;48.658;2.328;2024-02-21T11:29:03;10.75;;;3.25;;
70549;SDS011;58101;48.658;2.328;2024-02-21T11:31:42;9.75;;;3.22;;
70549;SDS011;58101;48.658;2.328;2024-02-21T11:34:12;10.02;;;2.90;;
70549;SDS011;58101;48.658;2.328;2024-02-21T11:36:51;9.27;;;2.85;;
70549;SDS011;58101;48.658;2.328;2024-02-21T11:39:24;10.88;;;3.17;;
70549;SDS011;58101;48.658;2.328;2024-02-21T11:44:35;13.80;;;4.15;;
70549;SDS011;58101;48.658;2.328;2024-02-21T11:47:05;12.18;;;3.20;;
70549;SDS011;58101;48.658;2.328;2024-02-21T11:49:36;11.63;;;2.97;;
70549;SDS011;58101;48.658;2.328;2024-02-21T11:52:04;11.80;;;2.90;;
70549;SDS011;58101;48.658;2.328;2024-02-21T11:54:30;13.02;;;3.13;;
70549;SDS011;58101;48.658;2.328;2024-02-21T11:56:56;9.43;;;3.40;;
70549;SDS011;58101;48.658;2.328;2024-02-21T11:59:22;10.70;;;3.30;;
70549;SDS011;58101;48.658;2.328;2024-02-21T12:01:48;10.40;;;2.90;;
70549;SDS011;58101;48.658;2.328;2024-02-21T12:04:15;10.50;;;3.28;;
70549;SDS011;58101;48.658;2.328;2024-02-21T12:06:42;10.55;;;2.85;;
70549;SDS011;58101;48.658;2.328;2024-02-21T12:09:09;8.38;;;3.00;;
70549;SDS011;58101;48.658;2.328;2024-02-21T12:11:38;10.15;;;3.45;;
70549;SDS011;58101;48.658;2.328;2024-02-21T12:14:04;11.70;;;3.60;;
70549;SDS011;58101;48.658;2.328;2024-02-21T12:16:33;9.32;;;2.90;;
70549;SDS011;58101;48.658;2.328;2024-02-21T12:19:02;12.45;;;3.22;;
70549;SDS011;58101;48.658;2.328;2024-02-21T12:21:32;10.10;;;3.10;;
70549;SDS011;58101;48.658;2.328;2024-02-21T12:24:11;9.80;;;2.90;;
70549;SDS011;58101;48.658;2.328;2024-02-21T12:26:47;8.68;;;2.78;;
70549;SDS011;58101;48.658;2.328;2024-02-21T12:29:12;9.93;;;2.63;;
70549;SDS011;58101;48.658;2.328;2024-02-21T12:31:38;9.68;;;2.85;;
70549;SDS011;58101;48.658;2.328;2024-02-21T12:34:04;10.65;;;2.80;;
70549;SDS011;58101;48.658;2.328;2024-02-21T12:36:33;10.25;;;2.90;;
70549;SDS011;58101;48.658;2.328;2024-02-21T12:38:59;9.15;;;2.67;;
70549;SDS011;58101;48.658;2.328;2024-02-21T12:41:26;9.98;;;2.90;;
70549;SDS011;58101;48.658;2.328;2024-02-21T12:43:53;10.15;;;3.17;;
70549;SDS011;58101;48.658;2.328;2024-02-21T12:46:19;9.85;;;2.80;;
70549;SDS011;58101;48.658;2.328;2024-02-21T12:48:44;10.70;;;2.90;;
70549;SDS011;58101;48.658;2.328;2024-02-21T12:51:10;11.05;;;2.90;;
70549;SDS011;58101;48.658;2.328;2024-02-21T12:53:36;9.98;;;2.78;;
70549;SDS011;58101;48.658;2.328;2024-02-21T12:56:01;9.70;;;2.83;;
70549;SDS011;58101;48.658;2.328;2024-02-21T12:58:27;12.15;;;3.65;;
70549;SDS011;58101;48.658;2.328;2024-02-21T13:00:56;9.82;;;2.63;;
70549;SDS011;58101;48.658;2.328;2024-02-21T13:03:22;10.30;;;3.25;;
70549;SDS011;58101;48.658;2.328;2024-02-21T13:05:47;11.48;;;2.80;;
70549;SDS011;58101;48.658;2.328;2024-02-21T13:08:13;11.27;;;2.92;;
70549;SDS011;58101;48.658;2.328;2024-02-21T13:10:39;10.05;;;2.88;;
70549;SDS011;58101;48.658;2.328;2024-02-21T13:13:04;9.50;;;2.30;;
70549;SDS011;58101;48.658;2.328;2024-02-21T13:15:30;10.40;;;2.90;;
70549;SDS011;58101;48.658;2.328;2024-02-21T13:17:56;8.25;;;2.60;;
70549;SDS011;58101;48.658;2.328;2024-02-21T13:20:25;8.93;;;2.72;;
70549;SDS011;58101;48.658;2.328;2024-02-21T13:22:51;9.27;;;2.63;;
70549;SDS011;58101;48.658;2.328;2024-02-21T13:25:17;9.18;;;3.20;;
70549;SDS011;58101;48.658;2.328;2024-02-21T13:27:45;9.85;;;2.95;;
70549;SDS011;58101;48.658;2.328;2024-02-21T13:30:11;11.13;;;3.10;;
70549;SDS011;58101;48.658;2.328;2024-02-21T13:32:38;8.48;;;2.88;;
70549;SDS011;58101;48.658;2.328;2024-02-21T13:35:04;10.20;;;3.17;;
70549;SDS011;58101;48.658;2.328;2024-02-21T13:37:30;10.35;;;3.30;;
70549;SDS011;58101;48.658;2.328;2024-02-21T13:39:56;13.93;;;3.72;;
70549;SDS011;58101;48.658;2.328;2024-02-21T13:42:22;11.32;;;3.22;;
70549;SDS011;58101;48.658;2.328;2024-02-21T13:44:49;11.02;;;3.25;;
70549;SDS011;58101;48.658;2.328;2024-02-21T13:47:14;10.70;;;3.10;;
70549;SDS011;58101;48.658;2.328;2024-02-21T13:49:40;13.38;;;3.55;;
70549;SDS011;58101;48.658;2.328;2024-02-21T13:52:06;12.63;;;4.00;;
70549;SDS011;58101;48.658;2.328;2024-02-21T13:54:32;9.85;;;3.35;;
70549;SDS011;58101;48.658;2.328;2024-02-21T13:56:59;12.48;;;4.00;;
70549;SDS011;58101;48.658;2.328;2024-02-21T13:59:25;11.45;;;3.72;;
70549;SDS011;58101;48.658;2.328;2024-02-21T14:01:51;14.38;;;4.15;;
70549;SDS011;58101;48.658;2.328;2024-02-21T14:04:17;13.48;;;4.53;;
70549;SDS011;58101;48.658;2.328;2024-02-21T14:06:43;16.67;;;4.80;;
70549;SDS011;58101;48.658;2.328;2024-02-21T14:09:09;16.52;;;3.85;;
70549;SDS011;58101;48.658;2.328;2024-02-21T14:11:35;11.85;;;4.68;;
70549;SDS011;58101;48.658;2.328;2024-02-21T14:14:02;14.32;;;4.40;;
70549;SDS011;58101;48.658;2.328;2024-02-21T14:16:28;14.88;;;5.72;;
70549;SDS011;58101;48.658;2.328;2024-02-21T14:18:54;18.25;;;5.90;;
70549;SDS011;58101;48.658;2.328;2024-02-21T14:21:20;14.27;;;5.85;;
70549;SDS011;58101;48.658;2.328;2024-02-21T14:23:46;13.65;;;5.90;;
70549;SDS011;58101;48.658;2.328;2024-02-21T14:26:11;14.77;;;4.60;;
70549;SDS011;58101;48.658;2.328;2024-02-21T14:28:37;15.70;;;5.40;;
70549;SDS011;58101;48.658;2.328;2024-02-21T14:31:03;13.98;;;4.60;;
70549;SDS011;58101;48.658;2.328;2024-02-21T14:33:31;15.15;;;4.60;;
70549;SDS011;58101;48.658;2.328;2024-02-21T14:35:56;12.35;;;4.38;;
70549;SDS011;58101;48.658;2.328;2024-02-21T14:38:22;12.02;;;3.97;;